Time;durP1;ratioP1;P1;durP2;ratioP2;P2;SDS_P1;SDS_P2;PMS_P1;PMS_P2;Temp;Humidity;BMP_temperature;BMP_pressure;BME280_temperature;BME280_humidity;BME280_pressure;Samples;Min_cycle;Max_cycle;Signal;HPM_P1;HPM_P2
2023/07/06 00:00:16;;;;;;;6.85;5.95;;;;;;;22.52;100.00;97937.59;5051039;28;20715;-57
2023/07/06 00:02:42;;;;;;;9.45;6.18;;;;;;;22.24;100.00;97913.00;5030791;28;20182;-57
2023/07/06 00:05:09;;;;;;;6.65;5.25;;;;;;;22.33;100.00;97914.50;5031173;28;20182;-57
2023/07/06 00:07:35;;;;;;;6.10;5.50;;;;;;;22.49;100.00;97919.56;5031162;28;20189;-57
2023/07/06 00:10:00;;;;;;;6.55;5.75;;;;;;;22.59;100.00;97927.91;5031032;28;20299;-60
2023/07/06 00:12:26;;;;;;;7.85;5.63;;;;;;;22.86;100.00;97945.56;5031300;28;20186;-57
2023/07/06 00:14:51;;;;;;;8.07;7.28;;;;;;;22.82;100.00;97946.97;5030987;28;20189;-57
2023/07/06 00:17:17;;;;;;;7.75;7.05;;;;;;;22.91;100.00;97953.72;5030930;28;20196;-57
2023/07/06 00:19:43;;;;;;;7.57;6.47;;;;;;;22.56;100.00;97928.31;5030844;28;20198;-57
2023/07/06 00:22:10;;;;;;;6.95;6.30;;;;;;;22.64;100.00;97951.91;5030970;28;20193;-57
2023/07/06 00:24:36;;;;;;;7.75;6.03;;;;;;;22.49;100.00;97919.56;5030831;28;20214;-57
2023/07/06 00:27:02;;;;;;;6.97;6.20;;;;;;;22.55;100.00;97940.69;5014197;28;20233;-57
2023/07/06 00:29:33;;;;;;;6.38;5.78;;;;;;;22.52;100.00;97940.25;5030745;28;20222;-57
2023/07/06 00:32:15;;;;;;;7.55;5.70;;;;;;;22.70;100.00;97943.22;5046709;28;20229;-57
2023/07/06 00:34:42;;;;;;;6.32;5.72;;;;;;;22.64;100.00;97928.16;5089542;28;20244;-57
2023/07/06 00:37:07;;;;;;;6.28;5.68;;;;;;;22.77;100.00;97942.28;5093487;28;20255;-57
2023/07/06 00:39:32;;;;;;;6.15;5.57;;;;;;;22.58;100.00;97902.56;5092916;28;20671;-57
2023/07/06 00:41:58;;;;;;;6.88;5.35;;;;;;;22.64;100.00;97936.91;5093126;28;20172;-57
2023/07/06 00:44:57;;;;;;;5.97;5.03;;;;;;;22.46;100.00;97933.09;5093095;28;20171;-57
2023/07/06 00:47:48;;;;;;;6.05;5.45;;;;;;;22.44;100.00;97935.13;5092918;28;20184;-57
2023/07/06 00:50:17;;;;;;;7.47;6.13;;;;;;;22.36;100.00;97899.13;5050210;28;20201;-57
2023/07/06 00:52:52;;;;;;;6.43;5.70;;;;;;;22.55;100.00;97926.69;5050289;28;20623;-57
2023/07/06 00:55:21;;;;;;;5.80;5.30;;;;;;;22.23;100.00;97900.84;5050247;28;20188;-58
2023/07/06 00:57:54;;;;;;;6.13;5.32;;;;;;;22.24;100.00;97899.81;5050160;28;20276;-57
2023/07/06 01:00:21;;;;;;;6.55;5.45;;;;;;;22.32;100.00;97944.53;5050174;28;20224;-57
2023/07/06 01:02:52;;;;;;;5.53;5.03;;;;;;;22.00;100.00;97916.84;5050046;28;20634;-57
2023/07/06 01:05:19;;;;;;;5.53;5.03;;;;;;;21.93;100.00;97909.88;5050069;28;20191;-57
2023/07/06 01:07:47;;;;;;;5.70;5.05;;;;;;;21.93;100.00;97915.16;5049948;28;20181;-57
2023/07/06 01:10:13;;;;;;;6.78;5.38;;;;;;;21.96;100.00;97930.59;5049928;28;20204;-57
2023/07/06 01:12:39;;;;;;;6.07;5.57;;;;;;;21.93;100.00;97937.06;5049915;28;20683;-57
2023/07/06 01:15:06;;;;;;;5.68;5.20;;;;;;;21.80;100.00;97907.13;5049327;28;20220;-57
2023/07/06 01:17:58;;;;;;;5.85;5.25;;;;;;;21.92;100.00;97935.41;5049832;28;20239;-57
2023/07/06 01:20:34;;;;;;;5.70;5.20;;;;;;;21.97;100.00;97932.22;5029811;28;20182;-57
2023/07/06 01:23:01;;;;;;;5.40;4.93;;;;;;;21.77;100.00;97931.19;5029830;28;20224;-57
2023/07/06 01:25:32;;;;;;;9.13;5.50;;;;;;;21.61;100.00;97926.13;5029794;28;20217;-57
2023/07/06 01:28:50;;;;;;;5.47;4.97;;;;;;;21.54;100.00;97933.13;5045879;28;20185;-57
2023/07/06 01:31:51;;;;;;;6.18;5.57;;;;;;;21.81;100.00;97932.47;5049626;28;20187;-57
2023/07/06 01:34:25;;;;;;;7.32;6.25;;;;;;;22.05;100.00;97932.09;5027756;28;20188;-58
2023/07/06 01:37:10;;;;;;;9.50;6.53;;;;;;;22.22;100.00;97933.47;5029659;28;20768;-57
2023/07/06 01:39:36;;;;;;;7.10;6.40;;;;;;;22.07;100.00;97919.53;5029609;28;20193;-57
2023/07/06 01:42:07;;;;;;;7.40;6.65;;;;;;;22.02;100.00;97935.13;5029552;28;20687;-58
2023/07/06 01:44:33;;;;;;;6.45;5.85;;;;;;;21.99;100.00;97930.22;5029568;28;20273;-58
2023/07/06 01:46:59;;;;;;;6.25;5.72;;;;;;;21.78;100.00;97907.31;5029604;28;20205;-58
2023/07/06 01:49:25;;;;;;;10.57;6.13;;;;;;;21.98;100.00;97923.31;5029414;28;20626;-58
2023/07/06 01:51:52;;;;;;;10.27;6.63;;;;;;;22.09;100.00;97930.72;5042963;28;20185;-56
2023/07/06 01:54:25;;;;;;;9.93;7.15;;;;;;;22.03;100.00;97928.84;5049410;28;20193;-57
2023/07/06 01:57:05;;;;;;;7.03;6.15;;;;;;;22.06;100.00;97931.09;5049674;28;20326;-57
2023/07/06 01:59:32;;;;;;;10.57;6.80;;;;;;;22.08;100.00;97926.47;5049123;28;20776;-57
2023/07/06 02:02:02;;;;;;;7.85;6.00;;;;;;;22.02;100.00;97920.09;5029182;28;20256;-57
2023/07/06 02:04:30;;;;;;;8.13;5.70;;;;;;;21.93;100.00;97901.97;5034386;28;20615;-58
2023/07/06 02:06:59;;;;;;;6.55;5.95;;;;;;;22.25;100.00;97933.09;5069177;28;20184;-57
2023/07/06 02:09:25;;;;;;;7.03;6.13;;;;;;;22.17;100.00;97909.50;5029002;28;20346;-57
2023/07/06 02:11:52;;;;;;;6.88;6.10;;;;;;;22.31;100.00;97930.50;5029239;28;20240;-57
2023/07/06 02:14:19;;;;;;;8.02;5.55;;;;;;;22.36;99.51;97922.03;5029204;28;20186;-57
2023/07/06 02:16:45;;;;;;;9.13;6.55;;;;;;;22.32;100.00;97891.78;5029136;28;20321;-57
2023/07/06 02:19:10;;;;;;;6.47;5.70;;;;;;;22.37;100.00;97897.31;5029251;28;20694;-57
2023/07/06 02:21:36;;;;;;;6.75;5.68;;;;;;;22.35;100.00;97891.41;5029237;28;20277;-58
2023/07/06 02:24:02;;;;;;;6.72;5.32;;;;;;;22.39;100.00;97884.75;5029078;28;20569;-56
2023/07/06 02:26:27;;;;;;;6.80;6.20;;;;;;;22.64;100.00;97921.06;5032240;28;20320;-56
2023/07/06 02:28:53;;;;;;;6.85;6.07;;;;;;;22.57;100.00;97922.84;5032990;28;20221;-56
2023/07/06 02:31:18;;;;;;;6.93;5.75;;;;;;;22.51;100.00;97921.00;5033030;28;20304;-57
2023/07/06 02:33:44;;;;;;;6.60;6.00;;;;;;;22.35;100.00;97915.94;5049466;28;20189;-57
2023/07/06 02:36:11;;;;;;;6.50;5.90;;;;;;;22.22;100.00;97909.75;5032785;28;20189;-57
2023/07/06 02:38:37;;;;;;;6.75;6.10;;;;;;;22.32;100.00;97910.25;5032813;28;20205;-57
2023/07/06 02:41:04;;;;;;;6.57;5.97;;;;;;;22.37;100.00;97929.75;5048065;28;20193;-57
2023/07/06 02:43:30;;;;;;;6.13;5.55;;;;;;;22.25;99.91;97904.13;5052756;28;20181;-57
2023/07/06 02:45:56;;;;;;;5.32;4.82;;;;;;;22.30;99.59;97934.16;5052725;28;20189;-56
2023/07/06 02:48:21;;;;;;;6.07;5.47;;;;;;;22.01;100.00;97909.75;5052205;28;20274;-57
2023/07/06 02:50:49;;;;;;;5.88;5.25;;;;;;;22.00;100.00;97897.59;5012681;28;20210;-57
2023/07/06 02:53:15;;;;;;;7.22;5.22;;;;;;;21.75;100.00;97891.06;5012818;28;20202;-57
2023/07/06 02:55:40;;;;;;;6.07;5.47;;;;;;;21.75;100.00;97927.94;5012702;28;20213;-56
2023/07/06 02:58:06;;;;;;;6.03;5.50;;;;;;;21.63;100.00;97897.78;5012786;28;20228;-56
2023/07/06 03:00:31;;;;;;;6.88;5.35;;;;;;;21.75;100.00;97930.56;5012500;28;20256;-56
2023/07/06 03:02:56;;;;;;;6.13;5.15;;;;;;;21.53;100.00;97928.88;5012666;28;20658;-56
2023/07/06 03:05:23;;;;;;;5.30;4.90;;;;;;;21.50;100.00;97909.00;4992746;28;20356;-56
2023/07/06 03:07:51;;;;;;;7.35;5.38;;;;;;;21.64;100.00;97902.88;5007927;28;20213;-56
2023/07/06 03:10:19;;;;;;;7.53;5.30;;;;;;;21.62;100.00;97917.25;5012412;28;20190;-56
2023/07/06 03:12:44;;;;;;;5.72;5.22;;;;;;;21.64;100.00;97938.91;5012402;28;20201;-56
2023/07/06 03:15:10;;;;;;;5.60;5.10;;;;;;;21.62;100.00;97933.03;5012442;28;20182;-57
2023/07/06 03:17:37;;;;;;;5.82;5.32;;;;;;;21.79;100.00;97937.09;5012414;28;20298;-56
2023/07/06 03:20:15;;;;;;;6.10;5.60;;;;;;;21.71;100.00;97922.22;5012294;28;20191;-56
2023/07/06 03:22:45;;;;;;;6.80;6.20;;;;;;;21.69;100.00;97918.94;5029709;28;20194;-56
2023/07/06 03:25:15;;;;;;;7.47;6.75;;;;;;;21.62;100.00;97893.53;5036867;28;20185;-56
2023/07/06 03:27:41;;;;;;;8.88;6.90;;;;;;;21.66;100.00;97900.03;5052001;28;20181;-57
2023/07/06 03:30:10;;;;;;;8.48;7.50;;;;;;;21.85;100.00;97907.38;5051786;28;20216;-56
2023/07/06 03:32:37;;;;;;;7.50;6.80;;;;;;;21.92;100.00;97918.78;5051914;28;20295;-56
2023/07/06 03:35:03;;;;;;;7.47;6.63;;;;;;;21.92;100.00;97903.00;5051846;28;20692;-57
2023/07/06 03:37:29;;;;;;;8.02;7.25;;;;;;;22.02;100.00;97914.84;5051146;28;20299;-57
2023/07/06 03:39:54;;;;;;;8.18;6.70;;;;;;;22.06;100.00;97924.00;5031648;28;20335;-58
2023/07/06 03:42:20;;;;;;;8.38;7.10;;;;;;;21.99;100.00;97890.69;5044089;28;20698;-58
2023/07/06 03:44:46;;;;;;;7.45;6.75;;;;;;;22.10;100.00;97908.63;5071572;28;20199;-57
2023/07/06 03:47:11;;;;;;;9.27;6.95;;;;;;;22.23;100.00;97917.47;5071478;28;20708;-56
2023/07/06 03:49:37;;;;;;;6.60;6.00;;;;;;;22.23;100.00;97896.38;5031306;28;20218;-57
2023/07/06 03:52:03;;;;;;;6.75;6.15;;;;;;;22.27;100.00;97902.09;5031522;28;20272;-57
2023/07/06 03:54:31;;;;;;;8.82;6.78;;;;;;;22.24;100.00;97891.91;5031499;28;20190;-57
2023/07/06 03:56:57;;;;;;;6.80;6.13;;;;;;;22.39;100.00;97911.13;5031533;28;20170;-58
2023/07/06 03:59:23;;;;;;;7.55;6.85;;;;;;;22.43;100.00;97907.94;5031369;28;20197;-57
2023/07/06 04:01:48;;;;;;;7.20;6.50;;;;;;;22.51;100.00;97921.00;5031382;28;20260;-58
2023/07/06 04:04:15;;;;;;;9.20;7.43;;;;;;;22.37;100.00;97900.75;5031238;28;20182;-57
2023/07/06 04:06:41;;;;;;;11.05;6.57;;;;;;;22.33;100.00;97888.94;5031276;28;20197;-59
2023/07/06 04:09:09;;;;;;;7.43;6.63;;;;;;;22.60;100.00;97917.19;5031184;28;20217;-57
2023/07/06 04:11:36;;;;;;;7.35;6.65;;;;;;;22.66;100.00;97912.97;5046898;28;20276;-56
2023/07/06 04:14:02;;;;;;;6.93;6.25;;;;;;;22.71;100.00;97915.81;5051040;28;20209;-58
2023/07/06 04:16:27;;;;;;;7.15;6.45;;;;;;;22.78;100.00;97927.25;5051121;28;20283;-58
2023/07/06 04:18:53;;;;;;;6.93;6.22;;;;;;;22.76;100.00;97910.78;5051045;28;20276;-57
2023/07/06 04:21:18;;;;;;;7.70;7.00;;;;;;;22.87;100.00;97912.91;5066572;28;20264;-57
2023/07/06 04:23:47;;;;;;;8.75;6.75;;;;;;;22.95;100.00;97924.13;5050681;28;20636;-57
2023/07/06 04:26:14;;;;;;;7.35;6.53;;;;;;;23.03;100.00;97921.34;5030636;28;20728;-57
2023/07/06 04:28:40;;;;;;;7.85;6.80;;;;;;;23.06;100.00;97930.66;5010719;28;20226;-57
2023/07/06 04:31:06;;;;;;;9.43;6.75;;;;;;;22.99;100.00;97929.81;5010984;28;20185;-57
2023/07/06 04:33:32;;;;;;;8.20;7.13;;;;;;;22.97;100.00;97926.56;5010984;28;20197;-57
2023/07/06 04:35:58;;;;;;;8.55;6.30;;;;;;;23.00;100.00;97942.00;5010717;28;20229;-58
2023/07/06 04:38:26;;;;;;;11.15;7.35;;;;;;;22.98;100.00;97938.75;5011154;28;20194;-56
2023/07/06 04:40:52;;;;;;;7.78;6.68;;;;;;;22.99;100.00;97943.00;4991047;28;20189;-58
2023/07/06 04:43:18;;;;;;;9.35;6.90;;;;;;;23.04;100.00;97916.84;4991051;28;20201;-57
2023/07/06 04:45:45;;;;;;;13.93;6.97;;;;;;;23.28;100.00;97942.81;4990983;28;20286;-57
2023/07/06 04:48:10;;;;;;;7.38;6.55;;;;;;;23.11;100.00;97917.69;4990364;28;20262;-57
2023/07/06 04:50:40;;;;;;;7.38;6.20;;;;;;;23.29;100.00;97925.94;4990761;28;20183;-57
2023/07/06 04:53:07;;;;;;;6.80;6.20;;;;;;;23.43;98.25;97939.00;4974888;28;20222;-58
2023/07/06 04:55:33;;;;;;;6.47;5.63;;;;;;;23.66;96.67;97950.06;4971534;28;20222;-56
2023/07/06 04:58:00;;;;;;;7.43;6.72;;;;;;;23.68;96.77;97938.28;5003418;28;20244;-56
2023/07/06 05:00:29;;;;;;;7.90;6.53;;;;;;;23.72;95.89;97928.13;5026555;28;20243;-57
2023/07/06 05:02:58;;;;;;;8.00;6.75;;;;;;;23.98;95.92;97955.47;5030269;28;20178;-56
2023/07/06 05:05:25;;;;;;;8.45;6.47;;;;;;;24.02;94.61;97966.50;5030192;28;20281;-57
2023/07/06 05:07:51;;;;;;;7.10;6.38;;;;;;;24.13;94.44;97959.81;5064709;28;20188;-56
2023/07/06 05:10:17;;;;;;;7.90;6.05;;;;;;;24.11;93.96;97960.00;5070005;28;20176;-56
2023/07/06 05:12:44;;;;;;;9.45;6.55;;;;;;;23.96;94.51;97937.41;5088990;28;20215;-56
2023/07/06 05:15:10;;;;;;;7.18;6.47;;;;;;;24.04;94.45;97953.88;5092591;28;20264;-56
2023/07/06 05:17:38;;;;;;;7.75;6.07;;;;;;;24.08;94.17;97945.34;5092857;28;20187;-56
2023/07/06 05:20:11;;;;;;;7.25;6.65;;;;;;;24.20;94.13;97956.97;5092498;28;20176;-56
2023/07/06 05:22:39;;;;;;;8.02;6.60;;;;;;;24.17;93.59;97948.63;5092547;28;20649;-56
2023/07/06 05:25:11;;;;;;;6.65;6.03;;;;;;;24.17;93.72;97947.81;5092430;28;20171;-56
2023/07/06 05:27:37;;;;;;;7.13;6.40;;;;;;;24.09;94.32;97946.97;5092440;28;20172;-56
2023/07/06 05:30:04;;;;;;;8.38;6.28;;;;;;;24.24;93.50;97965.28;5049503;28;20224;-57
2023/07/06 05:32:30;;;;;;;7.90;6.75;;;;;;;24.27;93.04;97963.06;5049706;28;20235;-57
2023/07/06 05:34:55;;;;;;;7.22;6.45;;;;;;;24.41;91.59;97962.06;5049692;28;20212;-56
2023/07/06 05:37:21;;;;;;;7.22;6.50;;;;;;;24.50;90.99;97974.06;5049654;28;20177;-56
2023/07/06 05:39:46;;;;;;;6.60;6.00;;;;;;;24.44;89.37;97940.50;5049621;28;20228;-56
2023/07/06 05:42:13;;;;;;;6.35;5.75;;;;;;;24.63;89.25;97966.19;5049569;28;20188;-56
2023/07/06 05:44:38;;;;;;;7.30;6.50;;;;;;;24.69;89.08;97967.19;5049480;28;20762;-56
2023/07/06 05:47:04;;;;;;;7.05;6.25;;;;;;;24.75;88.66;97974.31;5049317;28;20312;-56
2023/07/06 05:49:30;;;;;;;6.68;6.03;;;;;;;24.79;87.54;97970.25;5049411;28;20205;-56
2023/07/06 05:51:55;;;;;;;8.10;6.28;;;;;;;24.73;87.09;97965.78;5049449;28;20697;-56
2023/07/06 05:54:21;;;;;;;7.05;6.40;;;;;;;24.83;87.73;97980.22;5049833;28;20653;-56
2023/07/06 05:56:48;;;;;;;7.32;6.60;;;;;;;24.63;88.10;97950.31;5049338;28;20254;-56
2023/07/06 05:59:15;;;;;;;7.35;5.85;;;;;;;24.86;87.95;97976.34;5049399;28;20651;-56
2023/07/06 06:01:40;;;;;;;7.13;6.43;;;;;;;25.09;85.87;97976.72;5081660;28;20678;-56
2023/07/06 06:04:06;;;;;;;6.97;6.30;;;;;;;25.15;85.46;97962.66;5091957;28;20167;-57
2023/07/06 06:06:49;;;;;;;7.05;6.35;;;;;;;25.12;85.34;97955.09;5069220;28;20874;-56
2023/07/06 06:09:15;;;;;;;6.53;5.97;;;;;;;25.33;84.36;97973.44;5069276;28;20215;-57
2023/07/06 06:11:41;;;;;;;7.40;6.65;;;;;;;25.38;84.34;97978.94;5069359;28;20192;-56
2023/07/06 06:14:06;;;;;;;9.38;5.88;;;;;;;25.42;83.73;97975.66;5069292;28;20291;-57
2023/07/06 06:16:32;;;;;;;7.65;6.30;;;;;;;25.34;83.77;97965.28;5069266;28;20644;-57
2023/07/06 06:19:00;;;;;;;6.90;6.30;;;;;;;25.46;83.22;97970.75;5069253;28;20173;-57
2023/07/06 06:21:26;;;;;;;6.68;6.07;;;;;;;25.61;83.89;97982.69;5069205;28;20588;-56
2023/07/06 06:23:53;;;;;;;8.68;6.15;;;;;;;25.60;83.40;97951.94;5069468;28;20244;-56
2023/07/06 06:26:19;;;;;;;9.10;6.20;;;;;;;25.80;83.25;97963.28;5069108;28;20238;-56
2023/07/06 06:28:44;;;;;;;7.43;6.47;;;;;;;26.06;82.19;97981.72;5069077;28;20204;-56
2023/07/06 06:31:12;;;;;;;8.80;6.60;;;;;;;26.16;80.16;97971.47;5069076;28;20203;-56
2023/07/06 06:33:37;;;;;;;7.03;6.05;;;;;;;26.17;78.30;97959.00;5069072;28;20558;-56
2023/07/06 06:36:03;;;;;;;7.53;6.78;;;;;;;26.29;77.96;97950.16;5068978;28;20267;-56
2023/07/06 06:38:34;;;;;;;7.30;6.57;;;;;;;26.44;77.30;97953.31;5089237;28;20184;-56
2023/07/06 06:41:02;;;;;;;7.38;6.68;;;;;;;26.70;76.54;97968.25;5091607;28;20254;-56
2023/07/06 06:43:27;;;;;;;7.85;6.80;;;;;;;26.68;75.41;97949.88;5091300;28;20202;-56
2023/07/06 06:45:53;;;;;;;7.43;6.57;;;;;;;26.73;75.81;97968.63;5091583;28;20176;-57
2023/07/06 06:48:19;;;;;;;7.30;6.50;;;;;;;26.65;75.82;97945.00;5091459;28;20239;-57
2023/07/06 06:50:45;;;;;;;7.05;6.40;;;;;;;26.75;75.58;97945.31;5091511;28;20250;-56
2023/07/06 06:53:11;;;;;;;8.50;6.18;;;;;;;26.82;75.28;97951.38;5091518;28;20255;-57
2023/07/06 06:55:37;;;;;;;6.70;6.10;;;;;;;27.07;73.61;97969.94;5091464;28;20168;-57
2023/07/06 06:58:03;;;;;;;10.93;6.40;;;;;;;27.11;73.66;97968.47;5091423;28;20213;-57
2023/07/06 07:00:29;;;;;;;8.75;6.47;;;;;;;27.18;74.33;97963.94;5091427;28;20590;-57
2023/07/06 07:02:57;;;;;;;8.77;6.60;;;;;;;27.15;73.19;97951.06;5091697;28;20184;-57
2023/07/06 07:05:23;;;;;;;9.65;6.70;;;;;;;27.07;72.11;97973.44;5091692;28;20249;-56
2023/07/06 07:07:50;;;;;;;7.70;6.65;;;;;;;27.20;72.09;97975.97;5091332;28;20211;-57
2023/07/06 07:10:16;;;;;;;8.45;6.80;;;;;;;27.09;73.13;97947.44;5091316;28;20200;-56
2023/07/06 07:12:43;;;;;;;7.97;6.88;;;;;;;27.34;73.27;97974.78;5093044;28;20676;-57
2023/07/06 07:15:11;;;;;;;8.50;6.15;;;;;;;27.39;71.64;97974.94;5094856;28;20240;-57
2023/07/06 07:17:37;;;;;;;8.10;6.40;;;;;;;27.40;71.62;97981.88;5094926;28;20168;-57
2023/07/06 07:20:03;;;;;;;7.35;6.15;;;;;;;27.46;71.06;97970.34;5094613;28;20180;-56
2023/07/06 07:22:28;;;;;;;8.68;6.40;;;;;;;27.33;71.89;97951.09;5051979;28;20229;-56
2023/07/06 07:24:54;;;;;;;10.27;6.53;;;;;;;27.47;72.30;97971.19;5012142;28;20236;-56
2023/07/06 07:27:20;;;;;;;8.57;7.70;;;;;;;27.48;72.86;97965.66;5012265;28;20187;-56
2023/07/06 07:29:47;;;;;;;13.77;7.00;;;;;;;27.51;73.17;97957.22;5012264;28;20221;-56
2023/07/06 07:32:13;;;;;;;7.82;6.60;;;;;;;27.79;72.62;97978.78;5012144;28;20660;-56
2023/07/06 07:34:40;;;;;;;6.93;6.22;;;;;;;27.86;71.81;97992.81;5012204;28;20190;-56
2023/07/06 07:37:10;;;;;;;9.98;6.30;;;;;;;27.86;71.04;97966.22;5012096;28;20198;-56
2023/07/06 07:39:36;;;;;;;8.48;6.72;;;;;;;27.88;72.09;97985.41;5012167;28;20199;-56
2023/07/06 07:42:02;;;;;;;8.90;7.05;;;;;;;27.87;72.60;97980.34;5012085;28;20182;-56
2023/07/06 07:44:28;;;;;;;10.93;6.18;;;;;;;27.74;71.37;97972.47;5011963;28;20194;-56
2023/07/06 07:46:53;;;;;;;7.53;6.70;;;;;;;27.75;71.91;97958.97;5011778;28;20186;-56
2023/07/06 07:49:19;;;;;;;8.20;6.18;;;;;;;27.95;71.36;97985.34;5011860;28;20202;-56
2023/07/06 07:51:46;;;;;;;9.35;6.50;;;;;;;27.94;70.92;97973.06;5011873;28;20194;-56
2023/07/06 07:54:12;;;;;;;9.77;7.20;;;;;;;27.52;71.23;97956.19;5043478;28;20185;-56
2023/07/06 07:56:38;;;;;;;11.25;6.38;;;;;;;27.84;72.26;97978.94;5085779;28;20223;-56
2023/07/06 07:59:03;;;;;;;7.13;6.43;;;;;;;27.94;70.06;97973.06;5093806;28;20261;-56
2023/07/06 08:01:29;;;;;;;6.85;6.00;;;;;;;27.95;69.64;97986.16;5094074;28;20258;-56
2023/07/06 08:03:54;;;;;;;7.72;6.53;;;;;;;28.04;69.71;97990.13;5093663;28;20172;-56
2023/07/06 08:06:22;;;;;;;9.93;6.55;;;;;;;27.92;70.93;97983.94;5093577;28;20182;-56
2023/07/06 08:08:47;;;;;;;6.70;6.10;;;;;;;28.03;70.01;97983.16;5071030;28;20690;-56
2023/07/06 08:11:20;;;;;;;9.10;6.50;;;;;;;28.11;69.19;97985.50;5071428;28;20199;-56
2023/07/06 08:13:47;;;;;;;6.70;6.10;;;;;;;28.07;68.81;97951.59;5071137;28;20204;-56
2023/07/06 08:16:13;;;;;;;10.82;6.10;;;;;;;28.22;67.88;97966.09;5071325;28;20234;-56
2023/07/06 08:18:41;;;;;;;10.00;5.95;;;;;;;28.32;66.67;97977.03;5071017;28;20602;-56
2023/07/06 08:21:06;;;;;;;6.13;5.57;;;;;;;28.37;66.11;97974.53;5071005;28;20184;-56
2023/07/06 08:23:32;;;;;;;8.85;6.20;;;;;;;28.43;66.08;97960.31;5070844;28;20704;-56
2023/07/06 08:25:58;;;;;;;9.80;6.22;;;;;;;28.33;65.23;97962.69;5070838;28;20201;-56
2023/07/06 08:28:31;;;;;;;6.07;5.57;;;;;;;28.52;64.58;97972.22;5070753;28;20227;-56
2023/07/06 08:31:01;;;;;;;9.15;5.75;;;;;;;28.58;65.11;97971.31;5070728;28;20195;-56
2023/07/06 08:33:27;;;;;;;7.20;5.55;;;;;;;28.70;63.19;97974.00;5070715;28;20176;-56
2023/07/06 08:35:53;;;;;;;6.07;5.03;;;;;;;28.68;61.87;97963.56;5070628;28;20686;-56
2023/07/06 08:38:19;;;;;;;6.15;5.55;;;;;;;28.82;62.42;97967.66;5070936;28;20188;-56
2023/07/06 08:40:52;;;;;;;7.07;5.53;;;;;;;28.76;61.57;97963.25;5090618;28;20261;-56
2023/07/06 08:43:24;;;;;;;8.82;5.97;;;;;;;28.94;62.53;97976.47;5090839;28;20184;-56
2023/07/06 08:45:56;;;;;;;7.53;5.90;;;;;;;28.96;61.73;97974.41;5090853;28;20192;-56
2023/07/06 08:48:26;;;;;;;6.65;5.82;;;;;;;29.03;61.05;97975.09;5090577;28;20215;-56
2023/07/06 08:51:03;;;;;;;7.07;5.75;;;;;;;29.09;61.54;97978.72;5090732;28;20187;-56
2023/07/06 08:53:32;;;;;;;7.40;5.72;;;;;;;29.18;61.43;97980.78;5090698;28;20329;-56
2023/07/06 08:56:01;;;;;;;7.07;5.65;;;;;;;29.16;61.17;97979.38;5090535;28;20188;-56
2023/07/06 08:58:32;;;;;;;8.35;6.50;;;;;;;29.25;61.57;97970.81;5090473;28;20180;-56
2023/07/06 09:01:17;;;;;;;8.13;5.15;;;;;;;29.40;58.85;97983.66;5090563;28;20245;-56
2023/07/06 09:03:51;;;;;;;7.50;5.05;;;;;;;29.42;59.85;97977.03;5090577;28;20197;-56
2023/07/06 09:06:20;;;;;;;6.32;5.72;;;;;;;29.42;58.86;97971.72;5090425;28;20187;-56
2023/07/06 09:08:53;;;;;;;6.30;5.00;;;;;;;29.47;58.38;97982.47;5090186;28;20607;-56
2023/07/06 09:11:22;;;;;;;7.25;5.00;;;;;;;29.56;58.96;97978.41;5090950;28;20269;-56
2023/07/06 09:13:50;;;;;;;6.18;5.43;;;;;;;29.37;59.71;97968.09;5092733;28;20263;-56
2023/07/06 09:16:19;;;;;;;6.18;5.55;;;;;;;29.42;59.25;97987.69;5092325;28;20630;-56
2023/07/06 09:18:49;;;;;;;6.30;5.70;;;;;;;29.42;58.01;97984.22;5092543;28;20228;-56
2023/07/06 09:21:17;;;;;;;6.25;5.35;;;;;;;29.44;58.04;97968.81;5092540;28;20187;-56
2023/07/06 09:23:47;;;;;;;6.07;5.47;;;;;;;29.52;58.88;97974.59;5092469;28;20271;-56
2023/07/06 09:26:21;;;;;;;7.32;4.85;;;;;;;29.63;59.63;97973.78;5092437;28;20171;-57
2023/07/06 09:28:47;;;;;;;7.03;5.30;;;;;;;29.60;58.91;97955.59;5049602;28;20247;-57
2023/07/06 09:31:18;;;;;;;5.55;5.10;;;;;;;29.80;58.07;97960.50;5049710;28;20221;-57
2023/07/06 09:33:47;;;;;;;7.10;5.10;;;;;;;29.95;56.58;97979.47;5049694;28;20189;-57
2023/07/06 09:36:22;;;;;;;5.72;4.90;;;;;;;30.04;56.13;97967.38;5049126;28;20730;-57
2023/07/06 09:38:47;;;;;;;6.75;5.18;;;;;;;30.14;55.18;97965.72;5049675;28;20268;-57
2023/07/06 09:41:25;;;;;;;6.90;5.07;;;;;;;30.17;53.37;97951.91;5049543;28;20276;-57
2023/07/06 09:44:03;;;;;;;9.30;5.35;;;;;;;30.20;55.63;97964.75;5049651;28;20180;-57
2023/07/06 09:46:39;;;;;;;12.85;4.88;;;;;;;30.23;53.66;97966.97;5049468;28;20196;-57
2023/07/06 09:49:20;;;;;;;7.00;5.65;;;;;;;30.25;52.18;97958.72;5049662;28;20215;-57
2023/07/06 09:51:58;;;;;;;5.65;4.60;;;;;;;30.43;51.95;97961.97;5049632;28;20181;-58
2023/07/06 09:54:33;;;;;;;9.10;6.00;;;;;;;30.52;52.64;97965.06;5049373;28;20667;-55
2023/07/06 09:57:00;;;;;;;8.27;4.65;;;;;;;30.54;50.90;97952.28;5049316;28;20267;-56
2023/07/06 09:59:26;;;;;;;5.43;4.93;;;;;;;30.49;50.14;97944.97;5049335;28;20185;-56
2023/07/06 10:02:15;;;;;;;7.65;4.20;;;;;;;30.58;51.04;97970.25;5049287;28;20189;-56
2023/07/06 10:04:46;;;;;;;4.43;4.03;;;;;;;30.67;46.21;97966.13;5049210;28;20680;-56
2023/07/06 10:07:30;;;;;;;4.43;3.92;;;;;;;30.66;47.42;97958.38;5049258;28;20295;-56
2023/07/06 10:09:58;;;;;;;6.28;4.55;;;;;;;30.73;47.11;97962.50;5049233;28;20212;-56
2023/07/06 10:12:32;;;;;;;5.20;4.70;;;;;;;30.81;48.78;97953.25;5049301;28;20235;-57
2023/07/06 10:15:05;;;;;;;6.32;4.68;;;;;;;30.92;47.95;97953.19;5049338;28;20648;-56
2023/07/06 10:17:37;;;;;;;7.47;5.03;;;;;;;30.94;50.13;97945.72;5049163;28;20189;-56
2023/07/06 10:20:19;;;;;;;5.00;4.20;;;;;;;31.10;48.10;97950.25;5049153;28;20254;-56
2023/07/06 10:23:13;;;;;;;7.32;4.20;;;;;;;31.10;45.95;97933.38;5049225;28;20238;-56
2023/07/06 10:25:57;;;;;;;4.97;4.30;;;;;;;31.13;46.91;97930.22;5049215;28;20177;-56
2023/07/06 10:28:38;;;;;;;7.80;4.22;;;;;;;31.00;47.64;97919.88;5049101;28;20327;-56
2023/07/06 10:31:07;;;;;;;5.32;4.13;;;;;;;31.01;47.17;97905.47;5049131;28;20177;-56
2023/07/06 10:34:07;;;;;;;4.68;4.10;;;;;;;31.21;46.66;97927.97;5048955;28;20192;-56
2023/07/06 10:36:34;;;;;;;7.05;4.60;;;;;;;31.15;45.23;97922.75;5049034;28;20368;-56
2023/07/06 10:39:07;;;;;;;7.50;4.43;;;;;;;31.14;44.69;97905.91;5048976;28;20246;-56
2023/07/06 10:41:34;;;;;;;6.20;4.00;;;;;;;31.24;44.83;97900.72;5054155;28;20258;-56
2023/07/06 10:44:40;;;;;;;4.28;3.88;;;;;;;31.48;44.70;97902.09;5048710;28;20196;-57
2023/07/06 10:47:07;;;;;;;4.45;4.15;;;;;;;31.45;43.68;97881.19;5049583;28;20698;-56
2023/07/06 10:50:07;;;;;;;4.28;3.90;;;;;;;31.90;44.61;97900.47;5052634;28;20216;-56
2023/07/06 10:52:36;;;;;;;5.53;4.30;;;;;;;32.25;43.30;97900.00;5052723;28;20181;-56
2023/07/06 10:55:11;;;;;;;5.00;3.67;;;;;;;32.31;42.59;97881.06;5052685;28;20216;-57
2023/07/06 10:57:48;;;;;;;13.90;4.55;;;;;;;32.38;42.78;97891.53;5052650;28;20766;-56
2023/07/06 11:00:16;;;;;;;11.43;3.45;;;;;;;32.34;40.58;97879.75;5032421;28;20196;-56
2023/07/06 11:02:43;;;;;;;4.43;3.38;;;;;;;32.51;39.82;97870.50;5032611;28;20557;-56
2023/07/06 11:05:26;;;;;;;8.73;3.88;;;;;;;32.46;39.04;97899.91;5032418;28;20208;-56
2023/07/06 11:07:53;;;;;;;3.70;3.38;;;;;;;32.50;39.11;97884.97;5032528;28;20574;-56
2023/07/06 11:10:42;;;;;;;5.80;4.07;;;;;;;32.72;37.98;97896.38;5032335;28;20220;-56
2023/07/06 11:13:08;;;;;;;3.42;3.20;;;;;;;32.66;37.56;97901.94;5025194;28;20189;-56
2023/07/06 11:15:43;;;;;;;5.82;3.67;;;;;;;32.80;37.66;97900.44;5047058;28;20284;-56
2023/07/06 11:18:21;;;;;;;4.30;3.50;;;;;;;32.66;38.63;97884.00;5052153;28;20324;-56
2023/07/06 11:20:54;;;;;;;5.13;3.60;;;;;;;33.10;37.83;97895.28;5052116;28;20231;-56
2023/07/06 11:23:30;;;;;;;4.68;3.30;;;;;;;33.32;36.92;97894.06;5032071;28;20186;-57
2023/07/06 11:25:56;;;;;;;4.05;3.65;;;;;;;33.51;38.14;97889.06;5032184;28;20259;-56
2023/07/06 11:28:24;;;;;;;3.72;3.38;;;;;;;33.54;36.09;97893.88;5012137;28;20186;-56
2023/07/06 11:30:59;;;;;;;7.40;4.07;;;;;;;33.56;37.42;97868.41;5018813;28;20589;-56
2023/07/06 11:33:30;;;;;;;3.50;3.30;;;;;;;33.80;36.22;97893.72;5031928;28;20730;-56
2023/07/06 11:36:16;;;;;;;4.82;3.22;;;;;;;33.87;36.11;97901.53;5031976;28;20196;-56
2023/07/06 11:39:06;;;;;;;4.18;3.75;;;;;;;33.81;36.10;97902.59;4972989;28;20297;-57